createdAt,value
2018-06-23T00:00:27.076Z,15.51
2018-06-23T00:01:07.160Z,15.48
2018-06-23T00:01:48.769Z,15.4
2018-06-23T00:02:29.156Z,15.41
2018-06-23T00:03:09.717Z,15.34
2018-06-23T00:03:52.145Z,15.46
2018-06-23T00:04:34.385Z,15.43
2018-06-23T00:05:14.803Z,15.41
2018-06-23T00:05:55.123Z,15.41
2018-06-23T00:06:35.647Z,15.41
2018-06-23T00:07:16.505Z,15.37
2018-06-23T00:07:57.702Z,15.55
2018-06-23T00:08:38.132Z,15.41
2018-06-23T00:09:21.914Z,15.41
2018-06-23T00:10:02.462Z,15.41
2018-06-23T00:10:43.223Z,15.44
2018-06-23T00:11:23.663Z,15.41
2018-06-23T00:12:04.105Z,15.46
2018-06-23T00:12:46.820Z,15.46
2018-06-23T00:13:27.275Z,15.43
2018-06-23T00:14:07.679Z,15.38
2018-06-23T00:14:48.205Z,15.41
2018-06-23T00:15:28.856Z,15.3
2018-06-23T00:16:09.363Z,15.37
2018-06-23T00:16:49.997Z,15.31
2018-06-23T00:17:31.005Z,15.44
2018-06-23T00:18:10.978Z,15.49
2018-06-23T00:18:51.361Z,15.43
2018-06-23T00:19:31.794Z,15.38
2018-06-23T00:20:12.298Z,15.44
2018-06-23T00:20:52.686Z,15.33
2018-06-23T00:21:33.403Z,15.31
2018-06-23T00:22:13.773Z,15.33
2018-06-23T00:22:54.139Z,15.33
2018-06-23T00:23:34.520Z,15.19
2018-06-23T00:24:14.860Z,15.23
2018-06-23T00:24:55.283Z,15.22
2018-06-23T00:25:35.673Z,15.27
2018-06-23T00:26:16.032Z,15.22
2018-06-23T00:26:56.560Z,15.2
2018-06-23T00:27:37.630Z,15.22
2018-06-23T00:28:18.235Z,15.23
2018-06-23T00:28:58.827Z,15.27
2018-06-23T00:29:39.093Z,15.13
2018-06-23T00:30:19.498Z,15.01
2018-06-23T00:31:00.022Z,15
2018-06-23T00:31:41.066Z,15
2018-06-23T00:32:21.444Z,15.04
2018-06-23T00:33:01.827Z,14.97
2018-06-23T00:33:42.333Z,14.9
2018-06-23T00:34:22.625Z,14.91
2018-06-23T00:35:03.046Z,14.8
2018-06-23T00:35:43.498Z,14.78
2018-06-23T00:36:23.938Z,14.71
2018-06-23T00:37:06.875Z,14.74
2018-06-23T00:37:45.310Z,14.66
2018-06-23T00:38:25.877Z,14.78
2018-06-23T00:39:06.158Z,14.67
2018-06-23T00:39:46.639Z,14.61
2018-06-23T00:40:27.022Z,14.52
2018-06-23T00:41:07.442Z,14.57
2018-06-23T00:41:47.935Z,14.42
2018-06-23T00:42:28.333Z,14.36
2018-06-23T00:43:08.759Z,14.36
2018-06-23T00:43:49.203Z,14.29
2018-06-23T00:44:32.791Z,14.26
2018-06-23T00:45:13.114Z,14.31
2018-06-23T00:45:53.534Z,14.3
2018-06-23T00:46:34.042Z,14.35
2018-06-23T00:47:14.512Z,14.3
2018-06-23T00:47:54.963Z,14.35
2018-06-23T00:48:35.397Z,14.41
2018-06-23T00:49:15.849Z,14.3
2018-06-23T00:49:58.957Z,14.3
2018-06-23T00:50:39.321Z,14.34
2018-06-23T00:51:24.549Z,14.3
2018-06-23T00:52:06.609Z,14.3
2018-06-23T00:52:47.184Z,14.29
2018-06-23T00:53:27.780Z,14.31
2018-06-23T00:54:08.140Z,14.26
2018-06-23T00:54:48.565Z,14.36
2018-06-23T00:55:29.057Z,14.35
2018-06-23T00:56:09.660Z,14.39
2018-06-23T00:56:50.004Z,14.31
2018-06-23T00:57:30.459Z,14.27
2018-06-23T00:58:13.491Z,14.38
2018-06-23T00:58:51.391Z,14.34
2018-06-23T00:59:31.878Z,14.35
2018-06-23T01:00:12.330Z,14.36
2018-06-23T01:00:52.804Z,14.3
2018-06-23T01:01:33.488Z,14.3
2018-06-23T01:02:15.719Z,14.23
2018-06-23T01:02:56.116Z,14.23
2018-06-23T01:03:36.544Z,14.2
2018-06-23T01:04:17.139Z,14.2
2018-06-23T01:04:58.023Z,14.2
2018-06-23T01:05:38.595Z,14.2
2018-06-23T01:06:19.207Z,14.12
2018-06-23T01:06:59.466Z,14.12
2018-06-23T01:07:39.860Z,13.98
2018-06-23T01:08:20.295Z,13.96
2018-06-23T01:09:00.841Z,13.93
2018-06-23T01:09:42.524Z,13.98
2018-06-23T01:10:24.212Z,13.88
2018-06-23T01:11:04.679Z,13.88
2018-06-23T01:11:45.330Z,13.88
2018-06-23T01:12:26.413Z,13.94
2018-06-23T01:16:22.692Z,13.66
2018-06-23T01:17:59.387Z,13.61
2018-06-23T01:19:42.431Z,13.46
2018-06-23T01:24:02.405Z,13.46
2018-06-23T01:27:29.515Z,13.31
2018-06-23T01:33:43.530Z,13.31
2018-06-23T01:34:24.623Z,13.32
2018-06-23T01:35:04.992Z,13.38
2018-06-23T01:35:45.439Z,13.35
2018-06-23T01:36:25.785Z,13.35
2018-06-23T01:43:10.853Z,13.48
2018-06-23T01:46:42.652Z,13.31
2018-06-23T01:50:15.439Z,13.29
2018-06-23T01:59:34.104Z,13.87
2018-06-23T02:03:29.593Z,14.06
2018-06-23T02:04:22.678Z,13.98
2018-06-23T02:07:34.839Z,13.86
2018-06-23T02:09:11.994Z,13.75
2018-06-23T02:16:43.300Z,14.04
2018-06-23T02:17:38.318Z,14.08
2018-06-23T02:19:14.691Z,14.09
2018-06-23T02:20:02.474Z,14.08
2018-06-23T02:20:49.144Z,14.01
2018-06-23T02:21:30.641Z,14.01
2018-06-23T02:22:10.638Z,14.01
2018-06-23T02:22:51.876Z,13.94
2018-06-23T02:23:31.556Z,13.96
2018-06-23T02:24:14.500Z,13.84
2018-06-23T02:24:54.814Z,13.93
2018-06-23T02:25:35.733Z,13.88
2018-06-23T02:26:15.939Z,13.93
2018-06-23T02:26:58.156Z,13.88
2018-06-23T02:27:38.573Z,13.9
2018-06-23T02:28:19.328Z,13.84
2018-06-23T02:28:59.592Z,13.87
2018-06-23T02:29:40.026Z,13.81
2018-06-23T02:30:20.410Z,13.72
2018-06-23T02:31:00.845Z,13.84
2018-06-23T02:31:41.785Z,13.84
2018-06-23T02:32:22.466Z,13.81
2018-06-23T02:33:02.746Z,13.76
2018-06-23T02:33:43.274Z,13.8
2018-06-23T02:34:23.606Z,13.75
2018-06-23T02:35:04.064Z,13.81
2018-06-23T02:35:44.368Z,13.69
2018-06-23T02:36:25.208Z,13.69
2018-06-23T02:37:05.456Z,13.57
2018-06-23T02:38:05.574Z,13.54
2018-06-23T02:38:45.544Z,13.48
2018-06-23T02:39:25.860Z,13.47
2018-06-23T02:44:39.823Z,13.21
2018-06-23T02:46:54.795Z,13.21
2018-06-23T02:49:46.245Z,12.94
2018-06-23T02:53:17.182Z,12.81
2018-06-23T02:55:41.553Z,12.76
2018-06-23T03:08:43.239Z,12.33
2018-06-23T03:10:33.386Z,12.23
2018-06-23T03:19:28.430Z,12.33
2018-06-23T03:22:20.192Z,12.51
2018-06-23T03:23:00.959Z,12.55
2018-06-23T03:23:41.666Z,12.58
2018-06-23T03:24:21.871Z,12.55
2018-06-23T03:25:02.304Z,12.66
2018-06-23T03:25:42.883Z,12.71
2018-06-23T03:26:25.767Z,12.79
2018-06-23T03:27:06.048Z,12.76
2018-06-23T03:27:46.815Z,12.77
2018-06-23T03:28:32.122Z,12.79
2018-06-23T03:29:12.786Z,12.87
2018-06-23T03:29:55.123Z,12.98
2018-06-23T03:30:39.955Z,12.95
2018-06-23T03:31:20.054Z,13.07
2018-06-23T03:32:07.474Z,13.12
2018-06-23T03:35:19.565Z,13.31
2018-06-23T03:37:18.878Z,13.47
2018-06-23T03:38:12.585Z,13.59
2018-06-23T03:41:47.291Z,13.8
2018-06-23T03:42:39.274Z,13.93
2018-06-23T03:46:22.511Z,14.16
2018-06-23T03:49:02.845Z,14.09
2018-06-23T03:49:43.844Z,14.13
2018-06-23T03:50:25.865Z,14.11
2018-06-23T03:51:06.233Z,14.11
2018-06-23T03:56:16.778Z,14.09
2018-06-23T03:57:03.411Z,14.11
2018-06-23T03:57:43.820Z,14.17
2018-06-23T03:58:24.316Z,14.11
2018-06-23T03:59:04.944Z,14.12
2018-06-23T03:59:45.330Z,14.16
2018-06-23T04:00:25.795Z,14.24
2018-06-23T04:01:06.059Z,14.29
2018-06-23T04:01:46.834Z,14.35
2018-06-23T04:02:29.099Z,14.23
2018-06-23T04:41:55.940Z,17
2018-06-23T04:46:30.703Z,17.33
2018-06-23T04:47:14.071Z,17.4
2018-06-23T04:47:54.572Z,17.47
2018-06-23T04:48:36.103Z,17.65
2018-06-23T04:49:17.014Z,17.77
2018-06-23T04:49:57.520Z,17.84
2018-06-23T04:50:37.948Z,17.96
2018-06-23T04:51:18.330Z,18.13
2018-06-23T04:51:58.708Z,18.19
2018-06-23T04:52:39.230Z,18.31
2018-06-23T04:53:19.996Z,18.34
2018-06-23T04:54:00.484Z,18.36
2018-06-23T04:54:41.030Z,18.66
2018-06-23T04:55:21.919Z,18.75
2018-06-23T04:56:02.237Z,18.83
2018-06-23T04:56:42.680Z,18.97
2018-06-23T04:57:23.462Z,19.09
2018-06-23T04:58:04.603Z,19.35
2018-06-23T04:58:45.173Z,19.42
2018-06-23T04:59:25.415Z,19.46
2018-06-23T05:00:06.517Z,19.45
2018-06-23T05:00:47.175Z,19.25
2018-06-23T05:01:27.859Z,19.17
2018-06-23T05:02:08.258Z,19.09
2018-06-23T05:02:48.566Z,18.99
2018-06-23T05:03:29.019Z,18.93
2018-06-23T05:04:09.962Z,18.9
2018-06-23T05:04:50.212Z,19.06
2018-06-23T05:05:30.611Z,19.06
2018-06-23T05:06:11.084Z,19.17
2018-06-23T05:06:51.789Z,19.38
2018-06-23T05:07:31.997Z,19.58
2018-06-23T05:08:12.460Z,19.67
2018-06-23T05:08:55.087Z,19.95
2018-06-23T05:09:35.881Z,20.17
2018-06-23T05:10:17.264Z,20.33
2018-06-23T05:10:57.481Z,20.4
2018-06-23T05:11:37.797Z,20.71
2018-06-23T05:12:19.563Z,20.82
2018-06-23T05:12:59.418Z,21
2018-06-23T05:13:41.740Z,21.08
2018-06-23T05:14:24.678Z,21.27
2018-06-23T05:15:05.503Z,21.28
2018-06-23T05:15:45.859Z,21.28
2018-06-23T05:16:27.199Z,21.48
2018-06-23T05:17:08.449Z,21.4
2018-06-23T05:17:48.922Z,21.36
2018-06-23T05:18:29.438Z,21.4
2018-06-23T05:19:09.941Z,21.37
2018-06-23T05:19:51.466Z,21.52
2018-06-23T05:20:31.818Z,21.63
2018-06-23T05:21:12.641Z,21.59
2018-06-23T05:21:53.007Z,21.73
2018-06-23T05:22:33.388Z,21.83
2018-06-23T05:23:14.615Z,21.9
2018-06-23T05:23:56.924Z,22.08
2018-06-23T05:24:37.371Z,22.12
2018-06-23T05:25:17.880Z,22.31
2018-06-23T05:25:58.369Z,22.26
2018-06-23T05:26:40.546Z,22.42
2018-06-23T05:27:21.263Z,22.51
2018-06-23T05:29:17.712Z,22.93
2018-06-23T05:29:58.381Z,22.99
2018-06-23T05:30:38.774Z,23.04
2018-06-23T05:31:19.586Z,23.26
2018-06-23T05:32:01.201Z,23.39
2018-06-23T05:32:41.825Z,23.52
2018-06-23T05:33:22.641Z,23.68
2018-06-23T05:34:03.327Z,23.71
2018-06-23T05:34:44.524Z,23.67
2018-06-23T05:35:25.442Z,23.78
2018-06-23T05:36:05.777Z,23.84
2018-06-23T05:36:46.121Z,23.87
2018-06-23T05:37:26.821Z,23.75
2018-06-23T05:38:07.729Z,23.79
2018-06-23T05:38:48.720Z,23.94
2018-06-23T05:39:28.947Z,24.11
2018-06-23T05:40:11.086Z,24.18
2018-06-23T05:40:51.369Z,24.41
2018-06-23T05:41:31.991Z,24.41
2018-06-23T05:42:12.696Z,24.45
2018-06-23T05:42:53.333Z,24.27
2018-06-23T05:43:33.690Z,24.44
2018-06-23T05:44:15.382Z,24.42
2018-06-23T05:44:55.936Z,24.36
2018-06-23T05:45:36.883Z,24.3
2018-06-23T05:46:17.346Z,24.41
2018-06-23T05:46:58.282Z,24.21
2018-06-23T05:47:38.615Z,24.19
2018-06-23T05:48:19.670Z,23.96
2018-06-23T05:49:00.354Z,23.79
2018-06-23T05:49:40.937Z,23.6
2018-06-23T05:50:20.964Z,23.03
2018-06-23T05:51:01.568Z,22.94
2018-06-23T05:51:44.866Z,23.12
2018-06-23T05:52:25.190Z,23.06
2018-06-23T05:53:05.943Z,23.06
2018-06-23T05:53:47.692Z,22.86
2018-06-23T05:54:28.259Z,22.89
2018-06-23T05:55:09.636Z,22.79
2018-06-23T05:55:51.151Z,23.07
2018-06-23T05:56:31.553Z,23.37
2018-06-23T05:57:12.815Z,23.5
2018-06-23T05:57:54.291Z,23.54
2018-06-23T05:58:35.828Z,23.67
2018-06-23T05:59:16.722Z,23.64
2018-06-23T05:59:57.359Z,23.52
2018-06-23T06:00:37.806Z,23.14
2018-06-23T06:01:18.516Z,23.12
2018-06-23T06:01:59.820Z,22.75
2018-06-23T06:02:41.029Z,22.64
2018-06-23T06:03:21.508Z,22.33
2018-06-23T06:04:03.172Z,22.21
2018-06-23T06:04:43.614Z,22.02
2018-06-23T06:05:24.450Z,21.81
2018-06-23T06:06:05.577Z,21.68
2018-06-23T06:06:45.954Z,21.53
2018-06-23T06:07:26.450Z,21.33
2018-06-23T06:08:08.616Z,21.18
2018-06-23T06:08:49.812Z,21.03
2018-06-23T06:09:30.267Z,20.88
2018-06-23T06:10:11.092Z,20.73
2018-06-23T06:10:53.582Z,20.41
2018-06-23T06:11:34.134Z,20.38
2018-06-23T06:14:57.650Z,19.6
2018-06-23T06:15:37.711Z,19.58
2018-06-23T06:16:18.652Z,19.46
2018-06-23T06:16:59.687Z,19.53
2018-06-23T06:17:40.018Z,19.42
2018-06-23T06:18:20.846Z,19.27
2018-06-23T06:19:01.643Z,19.17
2018-06-23T06:19:42.199Z,19.1
2018-06-23T06:20:24.331Z,19.13
2018-06-23T06:21:05.422Z,19.06
2018-06-23T06:21:45.476Z,19.05
2018-06-23T06:22:26.031Z,18.86
2018-06-23T06:23:06.728Z,18.65
2018-06-23T06:23:46.919Z,18.38
2018-06-23T06:24:29.587Z,18.38
2018-06-23T06:25:11.743Z,18.29
2018-06-23T06:25:52.083Z,18.19
2018-06-23T06:26:33.757Z,18.13
2018-06-23T06:27:13.804Z,18.17
2018-06-23T06:27:54.426Z,18.17
2018-06-23T06:28:35.193Z,18.19
2018-06-23T06:29:16.253Z,18.17
2018-06-23T06:29:56.717Z,18.17
2018-06-23T06:30:37.258Z,18.09
2018-06-23T06:31:18.074Z,18.09
2018-06-23T06:31:58.573Z,18.02
2018-06-23T06:32:39.000Z,18.1
2018-06-23T06:33:19.494Z,18.2
2018-06-23T06:33:59.952Z,18.2
2018-06-23T06:34:40.354Z,18.17
2018-06-23T06:35:20.819Z,18.26
2018-06-23T06:36:01.615Z,18.11
2018-06-23T06:36:44.378Z,18.1
2018-06-23T06:37:24.768Z,18.11
2018-06-23T06:38:05.105Z,18.09
2018-06-23T06:38:47.642Z,18.1
2018-06-23T06:39:28.199Z,18.13
2018-06-23T06:40:08.903Z,18.21
2018-06-23T06:40:49.209Z,18.31
2018-06-23T06:41:29.620Z,18.32
2018-06-23T06:42:10.377Z,18.46
2018-06-23T06:42:50.564Z,18.39
2018-06-23T06:43:33.341Z,18.54
2018-06-23T06:44:13.932Z,18.56
2018-06-23T06:44:54.224Z,18.57
2018-06-23T06:45:35.373Z,18.62
2018-06-23T06:46:16.308Z,18.65
2018-06-23T06:46:56.729Z,18.64
2018-06-23T06:47:37.277Z,18.64
2018-06-23T06:48:17.649Z,18.71
2018-06-23T06:48:59.049Z,18.69
2018-06-23T06:49:39.558Z,18.69
2018-06-23T06:50:20.622Z,18.74
2018-06-23T06:51:01.501Z,18.71
2018-06-23T06:51:41.835Z,18.71
2018-06-23T06:52:22.729Z,18.57
2018-06-23T06:53:03.063Z,18.57
2018-06-23T06:53:44.294Z,18.5
2018-06-23T06:54:24.822Z,18.42
2018-06-23T06:55:05.255Z,18.49
2018-06-23T06:55:45.961Z,18.53
2018-06-23T06:56:28.025Z,18.44
2018-06-23T06:57:09.828Z,18.5
2018-06-23T06:57:50.344Z,18.42
2018-06-23T06:58:30.704Z,18.46
2018-06-23T06:59:11.222Z,18.54
2018-06-23T06:59:51.619Z,18.51
2018-06-23T07:00:32.312Z,18.49
2018-06-23T07:01:14.186Z,18.46
2018-06-23T07:01:54.666Z,18.53
2018-06-23T07:02:35.083Z,18.51
2018-06-23T07:03:15.519Z,18.49
2018-06-23T07:03:57.307Z,18.51
2018-06-23T07:04:37.746Z,18.49
2018-06-23T07:05:18.704Z,18.47
2018-06-23T07:05:59.755Z,18.51
2018-06-23T07:06:40.478Z,18.5
2018-06-23T07:07:21.129Z,18.53
2018-06-23T07:08:02.324Z,18.54
2018-06-23T07:08:44.125Z,18.47
2018-06-23T07:09:24.699Z,18.51
2018-06-23T07:10:05.084Z,18.51
2018-06-23T07:10:49.181Z,18.44
2018-06-23T07:11:30.720Z,18.49
2018-06-23T07:12:11.193Z,18.39
2018-06-23T07:12:52.175Z,18.41
2018-06-23T07:13:32.462Z,18.36
2018-06-23T07:14:12.926Z,18.31
2018-06-23T07:14:55.217Z,18.23
2018-06-23T07:15:36.599Z,18.36
2018-06-23T07:16:16.202Z,18.29
2018-06-23T07:16:57.487Z,18.34
2018-06-23T07:17:38.494Z,18.41
2018-06-23T07:18:19.609Z,18.35
2018-06-23T07:19:00.389Z,18.44
2018-06-23T07:19:40.853Z,18.51
2018-06-23T07:20:21.897Z,18.54
2018-06-23T07:21:02.461Z,18.53
2018-06-23T07:21:44.019Z,18.47
2018-06-23T07:22:24.613Z,18.53
2018-06-23T07:23:05.104Z,18.46
2018-06-23T07:23:45.727Z,18.32
2018-06-23T07:24:26.143Z,18.38
2018-06-23T07:25:08.369Z,18.36
2018-06-23T07:25:48.909Z,18.41
2018-06-23T07:26:29.352Z,18.38
2018-06-23T07:27:10.028Z,18.34
2018-06-23T07:27:51.025Z,18.39
2018-06-23T07:28:30.934Z,18.29
2018-06-23T07:29:12.208Z,18.36
2018-06-23T07:29:52.568Z,18.46
2018-06-23T07:30:34.869Z,18.39
2018-06-23T07:31:16.806Z,18.35
2018-06-23T07:31:57.411Z,18.32
2018-06-23T07:32:38.227Z,18.28
2018-06-23T07:33:18.716Z,18.28
2018-06-23T07:34:00.714Z,18.23
2018-06-23T07:34:41.117Z,18.2
2018-06-23T07:35:21.794Z,18.16
2018-06-23T07:36:02.346Z,18.16
2018-06-23T07:36:44.561Z,18.25
2018-06-23T07:37:25.322Z,18.19
2018-06-23T07:38:06.274Z,18.19
2018-06-23T07:38:49.234Z,18.16
2018-06-23T07:39:29.532Z,18.2
2018-06-23T07:40:09.990Z,18.2
2018-06-23T07:40:50.845Z,18.19
2018-06-23T07:41:31.877Z,18.16
2018-06-23T07:42:13.472Z,18.1
2018-06-23T07:42:55.670Z,18.09
2018-06-23T07:43:36.934Z,18.11
2018-06-23T07:44:17.405Z,18.05
2018-06-23T07:44:58.276Z,18.13
2018-06-23T07:45:38.937Z,18.16
2018-06-23T07:46:19.832Z,18.17
2018-06-23T07:47:01.001Z,18.2
2018-06-23T07:47:41.362Z,18.31
2018-06-23T07:48:21.776Z,18.25
2018-06-23T07:49:02.439Z,18.28
2018-06-23T07:49:43.574Z,18.2
2018-06-23T07:50:24.005Z,18.26
2018-06-23T07:51:05.542Z,18.28
2018-06-23T07:51:46.394Z,18.28
2018-06-23T07:52:27.771Z,18.25
2018-06-23T07:53:09.200Z,18.35
2018-06-23T07:53:50.288Z,18.28
2018-06-23T07:54:31.734Z,18.34
2018-06-23T07:55:11.894Z,18.34
2018-06-23T07:55:52.605Z,18.32
2018-06-23T07:56:33.842Z,18.32
2018-06-23T07:57:14.911Z,18.34
2018-06-23T07:57:55.530Z,18.35
2018-06-23T07:58:37.043Z,18.39
2018-06-23T07:59:17.261Z,18.36
2018-06-23T07:59:58.136Z,18.38
2018-06-23T08:00:41.835Z,18.35
2018-06-23T08:01:23.817Z,18.41
2018-06-23T08:02:04.076Z,18.42
2018-06-23T08:02:44.495Z,18.39
2018-06-23T08:03:26.089Z,18.36
2018-06-23T08:04:06.701Z,18.39
2018-06-23T08:04:47.141Z,18.35
2018-06-23T08:05:28.670Z,18.38
2018-06-23T08:06:09.732Z,18.42
2018-06-23T08:06:50.994Z,18.31
2018-06-23T08:07:31.175Z,18.35
2018-06-23T08:08:12.164Z,18.28
2018-06-23T08:08:52.341Z,18.26
2018-06-23T08:09:33.495Z,18.2
2018-06-23T08:10:14.460Z,18.32
2018-06-23T08:10:55.121Z,18.28
2018-06-23T08:11:36.003Z,18.28
2018-06-23T08:12:16.656Z,18.21
2018-06-23T08:12:57.967Z,18.34
2018-06-23T08:13:38.843Z,18.25
2018-06-23T08:14:20.469Z,18.31
2018-06-23T08:15:00.818Z,18.36
2018-06-23T08:15:41.335Z,18.41
2018-06-23T08:16:21.737Z,18.35
2018-06-23T08:17:03.011Z,18.36
2018-06-23T08:17:43.261Z,18.42
2018-06-23T08:18:23.735Z,18.35
2018-06-23T08:19:05.708Z,18.34
2018-06-23T08:19:47.505Z,18.39
2018-06-23T08:20:27.024Z,18.47
2018-06-23T08:21:07.633Z,18.5
2018-06-23T08:21:48.418Z,18.54
2018-06-23T08:22:29.310Z,18.51
2018-06-23T08:23:10.328Z,18.5
2018-06-23T08:23:50.819Z,18.51
2018-06-23T08:24:31.415Z,18.51
2018-06-23T08:25:12.014Z,18.47
2018-06-23T08:25:52.570Z,18.54
2018-06-23T08:26:34.724Z,18.56
2018-06-23T08:27:15.329Z,18.54
2018-06-23T08:27:55.968Z,18.65
2018-06-23T08:28:36.618Z,18.57
2018-06-23T08:29:17.198Z,18.57
2018-06-23T08:29:57.753Z,18.64
2018-06-23T08:30:38.297Z,18.6
2018-06-23T08:31:18.819Z,18.6
2018-06-23T08:31:59.236Z,18.72
2018-06-23T08:32:39.509Z,18.84
2018-06-23T08:33:22.701Z,18.87
2018-06-23T08:34:03.987Z,18.82
2018-06-23T08:34:44.844Z,18.91
2018-06-23T08:35:25.473Z,18.97
2018-06-23T08:36:06.591Z,19.02
2018-06-23T08:36:46.803Z,19.1
2018-06-23T08:37:27.925Z,19.1
2018-06-23T08:38:11.052Z,19.1
2018-06-23T08:38:51.369Z,19.27
2018-06-23T08:39:31.874Z,19.3
2018-06-23T08:40:13.439Z,19.47
2018-06-23T08:40:54.056Z,19.53
2018-06-23T08:41:34.610Z,19.53
2018-06-23T08:42:16.217Z,19.53
2018-06-23T08:42:56.989Z,19.57
2018-06-23T08:43:37.737Z,19.71
2018-06-23T08:44:18.402Z,19.7
2018-06-23T08:44:58.848Z,19.7
2018-06-23T08:45:39.233Z,19.78
2018-06-23T08:46:20.774Z,19.79
2018-06-23T08:47:01.790Z,19.78
2018-06-23T08:47:42.339Z,19.86
2018-06-23T08:48:22.839Z,19.94
2018-06-23T08:49:03.193Z,19.98
2018-06-23T08:49:44.126Z,20
2018-06-23T08:50:26.420Z,20.02
2018-06-23T08:51:06.986Z,20.13
2018-06-23T08:51:47.473Z,20.22
2018-06-23T08:52:29.133Z,20.25
2018-06-23T08:53:09.404Z,20.37
2018-06-23T08:53:49.971Z,20.46
2018-06-23T08:54:31.394Z,20.46
2018-06-23T08:55:12.631Z,20.51
2018-06-23T08:55:54.305Z,20.53
2018-06-23T08:56:34.753Z,20.42
2018-06-23T08:57:15.541Z,20.44
2018-06-23T08:57:59.330Z,20.5
2018-06-23T08:58:39.242Z,20.61
2018-06-23T08:59:20.440Z,20.71
2018-06-23T09:00:00.902Z,20.66
2018-06-23T09:00:42.249Z,20.78
2018-06-23T09:01:22.054Z,20.81
2018-06-23T09:02:03.366Z,20.9
2018-06-23T09:02:44.883Z,21.06
2018-06-23T09:03:25.824Z,21.27
2018-06-23T09:04:06.283Z,21.3
2018-06-23T09:04:48.792Z,21.49
2018-06-23T09:05:29.566Z,21.66
2018-06-23T09:06:09.750Z,21.63
2018-06-23T09:06:50.343Z,21.73
2018-06-23T09:07:30.915Z,21.85
2018-06-23T09:08:11.381Z,21.94
2018-06-23T09:08:51.871Z,22.01
2018-06-23T09:09:32.525Z,21.94
2018-06-23T09:10:12.983Z,22.01
2018-06-23T09:10:53.455Z,22.23
2018-06-23T09:11:34.899Z,22.19
2018-06-23T09:12:15.599Z,22.3
2018-06-23T09:12:56.526Z,22.33
2018-06-23T09:13:38.224Z,22.31
2018-06-23T09:14:18.857Z,22.26
2018-06-23T09:14:59.024Z,22.2
2018-06-23T09:15:39.704Z,22.24
2018-06-23T09:16:20.305Z,22.36
2018-06-23T09:17:01.024Z,22.36
2018-06-23T09:17:42.078Z,22.29
2018-06-23T09:18:23.395Z,22.38
2018-06-23T09:19:03.820Z,22.39
2018-06-23T09:19:44.552Z,22.26
2018-06-23T09:20:25.530Z,22.29
2018-06-23T09:21:06.022Z,22.41
2018-06-23T09:21:47.175Z,22.46
2018-06-23T09:22:27.556Z,22.57
2018-06-23T09:23:07.980Z,22.66
2018-06-23T09:23:48.314Z,22.66
2018-06-23T09:24:29.282Z,22.88
2018-06-23T09:25:10.322Z,23.01
2018-06-23T09:25:51.069Z,23.15
2018-06-23T09:26:32.600Z,23.41
2018-06-23T09:27:13.254Z,23.53
2018-06-23T09:27:53.712Z,23.71
2018-06-23T09:28:34.261Z,23.77
2018-06-23T09:29:15.052Z,23.79
2018-06-23T09:29:55.197Z,23.82
2018-06-23T09:30:35.737Z,23.9
2018-06-23T09:31:16.901Z,24.04
2018-06-23T09:31:57.301Z,24.16
2018-06-23T09:32:37.796Z,24.15
2018-06-23T09:33:18.961Z,24.09
2018-06-23T09:33:59.467Z,24.05
2018-06-23T09:34:39.976Z,24.08
2018-06-23T09:35:20.423Z,24.06
2018-06-23T09:36:01.300Z,23.92
2018-06-23T09:36:41.938Z,23.99
2018-06-23T09:37:22.632Z,23.87
2018-06-23T09:38:02.844Z,23.87
2018-06-23T09:38:43.485Z,23.87
2018-06-23T09:39:24.883Z,23.94
2018-06-23T09:40:05.333Z,23.86
2018-06-23T09:40:46.097Z,23.78
2018-06-23T09:41:27.117Z,23.84
2018-06-23T09:42:07.461Z,23.68
2018-06-23T09:42:48.028Z,23.59
2018-06-23T09:43:28.356Z,23.52
2018-06-23T09:44:08.857Z,23.42
2018-06-23T09:44:49.372Z,23.41
2018-06-23T09:45:29.929Z,23.35
2018-06-23T09:46:10.419Z,23.16
2018-06-23T09:46:50.973Z,23.12
2018-06-23T09:47:31.395Z,22.94
2018-06-23T09:52:28.133Z,22.41
2018-06-23T09:53:07.783Z,22.3
2018-06-23T09:53:48.267Z,22.31
2018-06-23T09:54:28.686Z,22.24
2018-06-23T09:55:09.124Z,22.23
2018-06-23T09:55:49.586Z,22.04
2018-06-23T09:56:29.914Z,22.08
2018-06-23T09:57:11.022Z,21.98
2018-06-23T09:57:52.677Z,21.94
2018-06-23T09:58:33.169Z,21.83
2018-06-23T09:59:13.552Z,21.9
2018-06-23T09:59:54.048Z,21.93
2018-06-23T10:00:35.116Z,21.99
2018-06-23T10:01:16.625Z,21.91
2018-06-23T10:01:57.971Z,21.9
2018-06-23T10:02:38.570Z,21.83
2018-06-23T10:03:19.012Z,21.83
2018-06-23T10:03:59.356Z,21.7
2018-06-23T10:44:45.415Z,20.26
2018-06-23T10:45:30.292Z,20.17
2018-06-23T10:46:13.349Z,20.3
2018-06-23T10:46:54.015Z,20.33
2018-06-23T10:47:39.545Z,20.31
2018-06-23T10:48:20.721Z,20.3
2018-06-23T10:49:01.246Z,20.27
2018-06-23T10:49:42.473Z,20.27
2018-06-23T10:50:23.719Z,20.33
2018-06-23T10:51:04.210Z,20.31
2018-06-23T10:51:45.059Z,20.3
2018-06-23T10:52:26.458Z,20.27
2018-06-23T10:53:08.070Z,20.34
2018-06-23T10:53:48.410Z,20.27
2018-06-23T10:54:29.770Z,20.48
2018-06-23T10:55:10.490Z,20.5
2018-06-23T10:55:51.190Z,20.54
2018-06-23T10:56:32.087Z,20.6
2018-06-23T10:57:12.558Z,20.46
2018-06-23T10:57:53.116Z,20.51
2018-06-23T10:58:33.776Z,20.48
2018-06-23T10:59:14.096Z,20.53
2018-06-23T10:59:54.691Z,20.53
2018-06-23T11:00:35.210Z,20.41
2018-06-23T11:01:20.783Z,20.4
2018-06-23T11:02:01.026Z,20.51
2018-06-23T11:02:42.266Z,20.41
2018-06-23T11:03:22.162Z,20.48
2018-06-23T11:04:03.112Z,20.53
2018-06-23T11:07:31.946Z,20.66
2018-06-23T11:08:11.757Z,20.71
2018-06-23T11:08:52.259Z,20.81
2018-06-23T11:09:32.947Z,20.88
2018-06-23T11:10:13.349Z,20.91
2018-06-23T11:10:53.935Z,21.01
2018-06-23T11:11:34.164Z,21.15
2018-06-23T11:12:16.199Z,21.26
2018-06-23T11:12:56.706Z,21.26
2018-06-23T11:13:36.994Z,21.43
2018-06-23T11:14:17.551Z,21.42
2018-06-23T11:14:59.706Z,21.52
2018-06-23T11:15:40.401Z,21.59
2018-06-23T11:16:21.172Z,21.63
2018-06-23T11:17:01.539Z,21.67
2018-06-23T11:17:41.956Z,21.67
2018-06-23T11:18:22.572Z,21.68
2018-06-23T11:19:02.918Z,21.79
2018-06-23T11:19:43.348Z,21.83
2018-06-23T11:20:23.966Z,21.96
2018-06-23T11:21:04.253Z,22.02
2018-06-23T11:21:45.422Z,21.98
2018-06-23T11:22:26.011Z,22.01
2018-06-23T11:23:06.568Z,21.99
2018-06-23T11:23:46.834Z,22.09
2018-06-23T11:24:27.456Z,22.12
2018-06-23T11:25:07.665Z,21.99
2018-06-23T11:25:48.029Z,22.02
2018-06-23T11:26:28.627Z,21.93
2018-06-23T11:27:09.026Z,21.93
2018-06-23T11:27:49.836Z,21.7
2018-06-23T11:28:30.901Z,21.73
2018-06-23T11:29:11.265Z,21.68
2018-06-23T11:29:53.310Z,21.83
2018-06-23T11:30:34.600Z,21.79
2018-06-23T11:31:15.411Z,21.82
2018-06-23T11:31:56.118Z,21.74
2018-06-23T11:32:37.154Z,21.81
2018-06-23T11:33:17.630Z,21.68
2018-06-23T11:33:58.053Z,21.75
2018-06-23T11:34:38.522Z,21.75
2018-06-23T11:35:18.938Z,21.53
2018-06-23T11:35:59.430Z,21.56
2018-06-23T11:36:40.664Z,21.63
2018-06-23T11:37:20.929Z,21.48
2018-06-23T11:38:01.668Z,21.46
2018-06-23T11:38:41.927Z,21.49
2018-06-23T11:39:23.422Z,21.38
2018-06-23T11:40:03.894Z,21.28
2018-06-23T11:40:44.453Z,21.28
2018-06-23T11:41:25.647Z,21.22
2018-06-23T11:42:06.403Z,21.24
2018-06-23T11:42:46.791Z,21.28
2018-06-23T11:43:28.267Z,21.24
2018-06-23T11:44:08.915Z,21.18
2018-06-23T11:44:49.416Z,21.15
2018-06-23T11:45:31.337Z,21.15
2018-06-23T11:46:11.980Z,21.11
2018-06-23T11:46:52.243Z,20.97
2018-06-23T11:47:32.792Z,21.11
2018-06-23T11:48:14.735Z,20.98
2018-06-23T11:48:55.977Z,21.01
2018-06-23T11:49:36.508Z,21.05
2018-06-23T11:50:18.670Z,20.98
2018-06-23T11:50:59.186Z,21.05
2018-06-23T11:51:39.745Z,21.01
2018-06-23T11:52:20.222Z,20.82
2018-06-23T11:53:00.665Z,20.75
2018-06-23T11:53:40.932Z,20.73
2018-06-23T11:54:22.111Z,20.66
2018-06-23T11:55:02.751Z,20.66
2018-06-23T11:55:43.341Z,20.63
2018-06-23T11:56:24.010Z,20.66
2018-06-23T11:57:06.380Z,20.66
2018-06-23T11:57:47.762Z,20.53
2018-06-23T11:58:29.310Z,20.48
2018-06-23T11:59:09.763Z,20.46
2018-06-23T11:59:53.880Z,20.44
2018-06-23T12:00:34.091Z,20.42
2018-06-23T12:01:15.070Z,20.41
2018-06-23T12:01:55.423Z,20.37
2018-06-23T12:02:37.417Z,20.4
2018-06-23T12:03:18.245Z,20.3
2018-06-23T12:03:58.381Z,20.3
2018-06-23T12:04:38.747Z,20.41
2018-06-23T12:05:19.529Z,20.31
2018-06-23T12:05:59.997Z,20.46
2018-06-23T12:06:40.422Z,20.41
2018-06-23T12:07:21.043Z,20.42
2018-06-23T12:08:03.447Z,20.48
2018-06-23T12:08:43.842Z,20.44